Time;durP1;ratioP1;P1;durP2;ratioP2;P2;SDS_P1;SDS_P2;PMS_P1;PMS_P2;Temp;Humidity;BMP_temperature;BMP_pressure;BME280_temperature;BME280_humidity;BME280_pressure;Samples;Min_cycle;Max_cycle;Signal;HPM_P1;HPM_P2
2021/11/21 00:01:38;;;;;;;7.95;5.78;;;;;;;5.03;100.00;98753.17;1767450;81;21150;-64
2021/11/21 00:04:08;;;;;;;13.22;6.00;;;;;;;5.00;100.00;98747.91;1761491;80;20904;-62
2021/11/21 00:06:36;;;;;;;7.97;5.72;;;;;;;5.01;100.00;98745.75;1750969;82;20955;-62
2021/11/21 00:09:04;;;;;;;9.15;5.90;;;;;;;5.01;100.00;98749.23;1761558;81;20924;-63
2021/11/21 00:11:33;;;;;;;8.10;5.80;;;;;;;5.00;100.00;98746.17;1764086;80;20913;-62
2021/11/21 00:14:02;;;;;;;8.45;5.70;;;;;;;4.98;100.00;98747.90;1757682;80;21083;-62
2021/11/21 00:16:31;;;;;;;7.87;5.45;;;;;;;4.96;100.00;98745.70;1757360;80;21472;-64
2021/11/21 00:19:00;;;;;;;9.33;5.35;;;;;;;4.96;100.00;98747.44;1770641;80;20859;-61
2021/11/21 00:21:29;;;;;;;10.25;5.50;;;;;;;4.95;100.00;98744.37;1750966;81;20990;-61
2021/11/21 00:23:58;;;;;;;9.95;6.10;;;;;;;4.96;100.00;98737.86;1751215;81;20955;-61
2021/11/21 00:26:26;;;;;;;11.15;6.62;;;;;;;4.92;100.00;98737.38;1765980;81;21818;-61
2021/11/21 00:28:54;;;;;;;9.13;6.70;;;;;;;4.90;100.00;98732.58;1750733;81;21572;-63
2021/11/21 00:31:22;;;;;;;9.68;6.00;;;;;;;4.88;100.00;98726.45;1761065;80;20970;-61
2021/11/21 00:33:51;;;;;;;12.30;6.60;;;;;;;4.87;100.00;98718.17;1737011;81;20998;-61
2021/11/21 00:36:19;;;;;;;12.37;7.72;;;;;;;4.89;100.00;98724.72;1721338;83;20866;-62
2021/11/21 00:38:47;;;;;;;12.20;8.80;;;;;;;4.87;100.00;98712.95;1700588;80;21091;-63
2021/11/21 00:41:15;;;;;;;13.48;9.00;;;;;;;4.86;100.00;98708.58;1817118;78;20884;-61
2021/11/21 00:43:43;;;;;;;12.63;9.00;;;;;;;4.87;100.00;98709.45;1823105;78;20931;-60
2021/11/21 00:46:11;;;;;;;9.75;7.60;;;;;;;4.86;100.00;98709.89;1746058;81;20960;-62
2021/11/21 00:48:40;;;;;;;10.53;7.60;;;;;;;4.86;100.00;98697.25;1750385;80;20936;-62
2021/11/21 00:51:09;;;;;;;13.05;7.60;;;;;;;4.89;100.00;98705.12;1756627;81;21146;-62
2021/11/21 00:53:41;;;;;;;11.28;7.30;;;;;;;4.90;100.00;98710.79;1752948;81;21422;-63
2021/11/21 00:56:09;;;;;;;12.95;8.00;;;;;;;4.90;100.00;98709.05;1740963;81;20974;-61
2021/11/21 00:58:38;;;;;;;12.68;7.80;;;;;;;4.92;100.00;98703.84;1745389;81;21460;-61
2021/11/21 01:01:07;;;;;;;13.15;8.00;;;;;;;4.89;100.00;98703.38;1744386;81;20932;-61
2021/11/21 01:03:36;;;;;;;10.82;7.45;;;;;;;4.88;100.00;98697.70;1773602;80;21437;-62
2021/11/21 01:06:06;;;;;;;13.38;8.08;;;;;;;4.88;100.00;98702.94;1742682;82;21481;-61
2021/11/21 01:08:35;;;;;;;11.38;7.75;;;;;;;4.91;100.00;98712.11;1760803;81;21409;-61
2021/11/21 01:11:05;;;;;;;11.57;7.87;;;;;;;4.91;100.00;98700.34;1745744;81;21562;-61
2021/11/21 01:13:35;;;;;;;16.57;9.35;;;;;;;4.90;100.00;98697.72;1787376;79;21580;-62
2021/11/21 01:16:05;;;;;;;15.05;8.65;;;;;;;4.85;100.00;98703.34;1756758;81;21536;-61
2021/11/21 01:18:36;;;;;;;10.23;7.20;;;;;;;4.83;100.00;98708.55;1725873;81;20978;-61
2021/11/21 01:21:05;;;;;;;11.05;7.12;;;;;;;4.81;100.00;98710.27;1730606;82;21569;-61
2021/11/21 01:23:34;;;;;;;10.32;7.50;;;;;;;4.80;100.00;98714.18;1740323;81;21544;-61
2021/11/21 01:26:04;;;;;;;9.65;7.83;;;;;;;4.80;100.00;98702.42;1736638;81;21082;-61
2021/11/21 01:28:35;;;;;;;9.68;8.50;;;;;;;4.78;100.00;98705.02;1780014;80;21949;-61
2021/11/21 01:31:04;;;;;;;10.25;7.75;;;;;;;4.77;100.00;98699.78;1750062;80;21508;-61
2021/11/21 01:33:35;;;;;;;10.43;7.92;;;;;;;4.79;100.00;98703.28;1763612;80;21060;-62
2021/11/21 01:36:04;;;;;;;10.93;7.95;;;;;;;4.82;100.00;98708.53;1749628;82;21018;-61
2021/11/21 01:38:33;;;;;;;9.78;8.18;;;;;;;4.86;100.00;98712.50;1751659;81;21602;-61
2021/11/21 01:41:02;;;;;;;14.47;8.60;;;;;;;4.89;100.00;98713.84;1740518;82;21133;-62
2021/11/21 01:43:31;;;;;;;9.70;8.33;;;;;;;4.89;100.00;98715.57;1770859;80;20888;-61
2021/11/21 01:46:02;;;;;;;10.65;7.78;;;;;;;4.90;100.00;98716.89;1741025;81;21409;-63
2021/11/21 01:48:32;;;;;;;12.75;7.37;;;;;;;4.92;100.00;98715.17;1761643;80;21406;-63
2021/11/21 01:51:04;;;;;;;9.30;7.45;;;;;;;4.94;100.00;98705.61;1764596;81;21474;-61
2021/11/21 01:53:32;;;;;;;12.00;7.55;;;;;;;5.00;100.00;98700.43;1750718;80;21135;-61
2021/11/21 01:56:01;;;;;;;10.58;8.00;;;;;;;5.04;100.00;98702.64;1787200;79;20844;-61
2021/11/21 01:58:30;;;;;;;11.20;8.38;;;;;;;5.09;100.00;98700.06;1771547;79;21413;-62
2021/11/21 02:00:59;;;;;;;9.60;8.03;;;;;;;5.12;100.00;98693.13;1757178;80;20949;-63
2021/11/21 02:03:27;;;;;;;10.75;8.25;;;;;;;5.15;100.00;98697.06;1790456;80;20939;-61
2021/11/21 02:05:56;;;;;;;12.50;8.55;;;;;;;5.17;100.00;98705.80;1731908;81;21096;-61
2021/11/21 02:08:26;;;;;;;10.00;8.63;;;;;;;5.18;100.00;98707.55;1761013;80;21529;-61
2021/11/21 02:10:59;;;;;;;13.88;8.68;;;;;;;5.20;100.00;98700.63;1753153;81;21393;-61
2021/11/21 02:13:28;;;;;;;9.98;7.60;;;;;;;5.22;100.00;98698.90;1755957;81;21415;-60
2021/11/21 02:15:57;;;;;;;9.18;8.08;;;;;;;5.26;100.00;98705.91;1750242;81;21007;-61
2021/11/21 02:18:25;;;;;;;11.83;8.70;;;;;;;5.30;100.00;98708.11;1757507;80;21154;-61
2021/11/21 02:20:55;;;;;;;10.60;7.85;;;;;;;5.33;100.00;98704.21;1757224;81;20960;-63
2021/11/21 02:23:25;;;;;;;10.95;8.88;;;;;;;5.35;100.00;98698.56;1757056;81;20996;-62
2021/11/21 02:25:53;;;;;;;19.40;9.30;;;;;;;5.38;100.00;98695.96;1766932;79;20987;-61
2021/11/21 02:28:22;;;;;;;10.53;8.25;;;;;;;5.39;100.00;98691.17;1757021;81;21002;-61
2021/11/21 02:30:52;;;;;;;11.33;9.45;;;;;;;5.42;100.00;98690.32;1757234;81;21441;-59
2021/11/21 02:33:21;;;;;;;12.95;9.98;;;;;;;5.41;100.00;98689.87;1756905;81;21430;-60
2021/11/21 02:35:52;;;;;;;11.30;8.70;;;;;;;5.36;100.00;98681.57;1777113;79;21505;-60
2021/11/21 02:38:22;;;;;;;10.68;8.45;;;;;;;5.34;100.00;98687.22;1774359;80;20979;-59
2021/11/21 02:40:52;;;;;;;16.10;9.85;;;;;;;5.32;100.00;98688.08;1788582;79;21463;-60
2021/11/21 02:43:20;;;;;;;12.73;8.88;;;;;;;5.31;100.00;98687.63;1803209;79;21099;-62
2021/11/21 02:45:51;;;;;;;11.93;9.23;;;;;;;5.32;100.00;98690.69;1786107;79;20948;-61
2021/11/21 02:48:21;;;;;;;11.12;8.70;;;;;;;5.34;100.00;98698.11;1772880;81;21470;-60
2021/11/21 02:50:50;;;;;;;11.65;9.18;;;;;;;5.36;100.00;98693.77;1777275;80;20960;-62
2021/11/21 02:53:20;;;;;;;10.38;8.83;;;;;;;5.37;100.00;98699.02;1788699;79;21459;-61
2021/11/21 02:55:55;;;;;;;10.03;7.90;;;;;;;5.40;100.00;98703.39;1778745;79;21283;-61
2021/11/21 02:58:27;;;;;;;11.15;7.58;;;;;;;5.44;100.00;98701.23;1787921;79;20915;-60
2021/11/21 03:00:57;;;;;;;9.05;7.60;;;;;;;5.47;100.00;98701.27;1807516;79;20919;-60
2021/11/21 03:03:26;;;;;;;9.10;7.80;;;;;;;5.51;100.00;98703.46;1787621;79;21514;-60
2021/11/21 03:05:56;;;;;;;10.75;9.18;;;;;;;5.54;100.00;98696.52;1760341;79;21495;-62
2021/11/21 03:08:25;;;;;;;10.93;7.90;;;;;;;5.56;100.00;98693.47;1728307;81;22702;-60
2021/11/21 03:10:54;;;;;;;9.25;7.42;;;;;;;5.59;100.00;98695.23;1731869;81;20992;-61
2021/11/21 03:13:24;;;;;;;9.88;7.45;;;;;;;5.62;100.00;98695.25;1753768;81;20947;-61
2021/11/21 03:15:56;;;;;;;9.90;7.87;;;;;;;5.65;100.00;98695.27;1753429;81;21438;-61
2021/11/21 03:18:24;;;;;;;11.90;8.35;;;;;;;5.66;100.00;98693.09;1752469;81;21430;-61
2021/11/21 03:20:53;;;;;;;11.08;8.70;;;;;;;5.67;100.00;98689.17;1737113;81;21147;-61
2021/11/21 03:23:21;;;;;;;9.70;8.03;;;;;;;5.68;100.00;98687.03;1743355;81;20918;-60
2021/11/21 03:25:50;;;;;;;9.40;7.40;;;;;;;5.67;100.00;98687.87;1740801;81;21449;-62
2021/11/21 03:28:19;;;;;;;11.38;7.62;;;;;;;5.68;100.00;98687.03;1747743;81;21110;-60
2021/11/21 03:30:47;;;;;;;10.60;8.13;;;;;;;5.68;100.00;98685.73;1742440;81;21592;-62
2021/11/21 03:33:17;;;;;;;8.85;7.87;;;;;;;5.69;100.00;98687.91;1753342;81;21105;-60
2021/11/21 03:35:45;;;;;;;9.45;8.15;;;;;;;5.66;100.00;98683.50;1759950;79;21562;-60
2021/11/21 03:38:14;;;;;;;8.53;7.72;;;;;;;5.62;100.00;98681.73;1764175;79;20962;-60
2021/11/21 03:40:43;;;;;;;11.22;7.40;;;;;;;5.60;100.00;98683.47;1764415;79;21515;-61
2021/11/21 03:43:13;;;;;;;9.50;8.23;;;;;;;5.59;100.00;98683.02;1758433;80;21041;-59
2021/11/21 03:45:41;;;;;;;10.93;8.48;;;;;;;5.55;100.00;98673.41;1735134;81;21185;-60
2021/11/21 03:48:10;;;;;;;9.83;8.73;;;;;;;5.51;100.00;98680.80;1735090;82;21014;-60
2021/11/21 03:50:38;;;;;;;10.85;8.40;;;;;;;5.50;100.00;98676.42;1735026;81;20946;-60
2021/11/21 03:53:07;;;;;;;10.90;7.42;;;;;;;5.49;100.00;98678.60;1742801;81;20999;-60
2021/11/21 03:55:36;;;;;;;12.55;8.35;;;;;;;5.51;100.00;98677.30;1736911;82;21521;-60
2021/11/21 03:58:05;;;;;;;10.05;8.68;;;;;;;5.51;100.00;98682.10;1731376;81;21929;-60
2021/11/21 04:00:34;;;;;;;11.22;8.93;;;;;;;5.51;100.00;98678.61;1750953;81;22259;-60
2021/11/21 04:03:05;;;;;;;11.30;8.35;;;;;;;5.50;100.00;98679.05;1751219;82;20934;-62
2021/11/21 04:05:33;;;;;;;10.70;8.30;;;;;;;5.50;100.00;98676.86;1750095;81;20983;-61
2021/11/21 04:08:01;;;;;;;10.30;8.40;;;;;;;5.52;100.00;98679.05;1752643;81;21421;-61
2021/11/21 04:10:30;;;;;;;9.00;8.10;;;;;;;5.53;100.00;98671.65;1757962;80;21418;-62
2021/11/21 04:12:58;;;;;;;14.25;9.10;;;;;;;5.52;100.00;98676.00;1788962;80;20926;-63
2021/11/21 04:15:26;;;;;;;12.07;9.25;;;;;;;5.51;100.00;98674.25;1762627;80;20893;-62
2021/11/21 04:17:54;;;;;;;9.43;8.30;;;;;;;5.51;100.00;98665.09;1768005;80;20992;-61
2021/11/21 04:20:22;;;;;;;9.65;8.23;;;;;;;5.52;100.00;98669.46;1759493;81;21537;-62
2021/11/21 04:22:50;;;;;;;10.88;8.13;;;;;;;5.53;100.00;98669.03;1759886;81;21109;-61
2021/11/21 04:25:19;;;;;;;9.43;8.43;;;;;;;5.55;100.00;98674.72;1787725;78;20947;-60
2021/11/21 04:27:47;;;;;;;14.63;9.18;;;;;;;5.53;100.00;98662.06;1795712;80;20948;-60
2021/11/21 04:30:15;;;;;;;10.10;8.95;;;;;;;5.53;100.00;98662.06;1737410;80;21034;-60
2021/11/21 04:32:45;;;;;;;12.25;8.85;;;;;;;5.53;100.00;98666.41;1771648;81;21485;-61
2021/11/21 04:35:16;;;;;;;13.45;8.45;;;;;;;5.55;100.00;98663.38;1753616;81;21135;-61
2021/11/21 04:37:44;;;;;;;10.58;8.50;;;;;;;5.57;100.00;98661.21;1761852;81;20922;-61
2021/11/21 04:40:13;;;;;;;12.18;8.75;;;;;;;5.59;100.00;98660.78;1771875;80;20961;-61
2021/11/21 04:42:42;;;;;;;11.48;9.00;;;;;;;5.60;100.00;98659.92;1767612;81;20991;-63
2021/11/21 04:45:11;;;;;;;13.25;9.38;;;;;;;5.59;100.00;98655.98;1770859;81;21437;-64
2021/11/21 04:47:40;;;;;;;15.28;9.15;;;;;;;5.58;100.00;98655.55;1727787;82;21148;-61
2021/11/21 04:50:10;;;;;;;12.60;8.23;;;;;;;5.60;100.00;98653.81;1746316;81;21475;-61
2021/11/21 04:52:39;;;;;;;11.38;8.78;;;;;;;5.60;100.00;98652.50;1809607;79;21378;-63
2021/11/21 04:55:08;;;;;;;13.58;9.10;;;;;;;5.59;100.00;98652.94;1801806;79;21414;-61
2021/11/21 04:57:40;;;;;;;9.90;8.45;;;;;;;5.56;100.00;98647.69;1783756;79;21506;-61
2021/11/21 05:00:15;;;;;;;14.03;9.00;;;;;;;5.57;100.00;98652.05;1779336;79;21112;-61
2021/11/21 05:02:45;;;;;;;12.20;8.85;;;;;;;5.57;100.00;98648.12;1771418;81;21168;-60
2021/11/21 05:05:15;;;;;;;9.28;7.97;;;;;;;5.59;100.00;98649.45;1736538;81;20991;-63
2021/11/21 05:07:43;;;;;;;8.83;7.92;;;;;;;5.60;100.00;98653.38;1757628;81;20977;-62
2021/11/21 05:10:11;;;;;;;24.67;9.05;;;;;;;5.62;100.00;98656.00;1704475;82;20993;-61
2021/11/21 05:12:42;;;;;;;16.17;8.80;;;;;;;5.60;100.00;98658.61;1751820;81;20883;-64
2021/11/21 05:15:13;;;;;;;11.70;9.30;;;;;;;5.60;100.00;98658.61;1733408;81;21434;-62
2021/11/21 05:17:42;;;;;;;12.13;8.30;;;;;;;5.60;100.00;98658.61;1743752;81;21101;-61
2021/11/21 05:20:11;;;;;;;11.22;8.60;;;;;;;5.61;100.00;98662.10;1699901;83;20958;-60
2021/11/21 05:22:39;;;;;;;9.33;8.25;;;;;;;5.64;100.00;98661.69;1761591;80;21451;-61
2021/11/21 05:25:08;;;;;;;14.20;8.20;;;;;;;5.66;100.00;98655.16;1765164;80;21425;-60
2021/11/21 05:27:37;;;;;;;13.85;9.18;;;;;;;5.67;100.00;98663.01;1747949;81;21453;-61
2021/11/21 05:30:07;;;;;;;11.83;9.55;;;;;;;5.68;100.00;98659.99;1760152;80;21477;-60
2021/11/21 05:32:35;;;;;;;10.25;8.20;;;;;;;5.68;100.00;98663.92;1708062;84;21516;-61
2021/11/21 05:35:04;;;;;;;12.80;8.23;;;;;;;5.69;100.00;98657.38;1729057;83;20929;-61
2021/11/21 05:37:32;;;;;;;10.82;7.87;;;;;;;5.69;100.00;98657.38;1733310;81;21193;-61
2021/11/21 05:40:01;;;;;;;8.18;7.30;;;;;;;5.69;100.00;98652.16;1735147;81;21078;-63
2021/11/21 05:42:29;;;;;;;10.95;8.50;;;;;;;5.69;100.00;98654.77;1735012;82;21091;-63
2021/11/21 05:44:57;;;;;;;12.82;8.58;;;;;;;5.68;100.00;98663.48;1754720;81;21407;-62
2021/11/21 05:47:28;;;;;;;9.40;7.83;;;;;;;5.68;100.00;98658.25;1709067;82;20898;-60
2021/11/21 05:49:56;;;;;;;10.30;8.18;;;;;;;5.69;100.00;98662.62;1739155;82;21147;-61
2021/11/21 05:52:25;;;;;;;11.90;8.58;;;;;;;5.71;100.00;98659.13;1739328;82;20897;-61
2021/11/21 05:54:55;;;;;;;12.37;8.90;;;;;;;5.71;100.00;98654.78;1728235;82;20992;-60
2021/11/21 05:57:23;;;;;;;10.63;8.60;;;;;;;5.72;100.00;98661.76;1738408;82;20948;-62
2021/11/21 05:59:51;;;;;;;13.48;9.70;;;;;;;5.72;100.00;98655.66;1705207;82;21453;-61
2021/11/21 06:02:19;;;;;;;11.22;8.35;;;;;;;5.73;100.00;98663.51;1717772;82;21086;-61
2021/11/21 06:04:48;;;;;;;10.53;8.60;;;;;;;5.74;100.00;98668.31;1723805;81;20945;-63
2021/11/21 06:07:16;;;;;;;9.95;8.20;;;;;;;5.74;100.00;98669.19;1726734;81;21054;-61
2021/11/21 06:09:45;;;;;;;10.35;8.00;;;;;;;5.74;100.00;98665.26;1785791;79;20936;-60
2021/11/21 06:12:13;;;;;;;10.25;8.28;;;;;;;5.74;100.00;98661.33;1805409;79;20982;-59
2021/11/21 06:14:42;;;;;;;11.65;8.43;;;;;;;5.73;100.00;98661.33;1750391;81;21205;-61
2021/11/21 06:17:12;;;;;;;12.40;7.92;;;;;;;5.72;100.00;98662.19;1750047;81;20853;-61
2021/11/21 06:19:40;;;;;;;8.85;7.47;;;;;;;5.72;100.00;98658.27;1753723;81;21458;-62
2021/11/21 06:22:09;;;;;;;10.20;7.78;;;;;;;5.71;100.00;98659.13;1747870;81;21051;-61
2021/11/21 06:24:38;;;;;;;10.82;8.15;;;;;;;5.72;100.00;98655.66;1757397;81;21469;-61
2021/11/21 06:27:07;;;;;;;10.65;8.53;;;;;;;5.71;100.00;98652.16;1757559;81;21584;-62
2021/11/21 06:29:35;;;;;;;10.82;8.33;;;;;;;5.70;100.00;98649.09;1765876;80;20929;-64
2021/11/21 06:32:04;;;;;;;11.25;8.90;;;;;;;5.71;100.00;98646.92;1759527;80;21137;-61
2021/11/21 06:34:33;;;;;;;9.40;6.92;;;;;;;5.74;100.00;98647.38;1754005;81;21580;-61
2021/11/21 06:37:02;;;;;;;11.33;7.42;;;;;;;5.76;100.00;98647.82;1740802;81;20994;-63
2021/11/21 06:39:31;;;;;;;12.03;7.62;;;;;;;5.79;100.00;98653.50;1755999;80;21789;-61
2021/11/21 06:41:59;;;;;;;12.53;8.28;;;;;;;5.82;100.00;98654.83;1768606;81;20874;-62
2021/11/21 06:44:28;;;;;;;11.45;8.40;;;;;;;5.85;100.00;98652.22;1760920;81;21001;-60
2021/11/21 06:46:57;;;;;;;10.55;7.67;;;;;;;5.86;100.00;98648.30;1762698;80;20993;-61
2021/11/21 06:49:26;;;;;;;10.38;6.75;;;;;;;5.89;100.00;98647.44;1754095;81;21566;-61
2021/11/21 06:51:54;;;;;;;8.68;7.22;;;;;;;5.90;100.00;98638.32;1728530;82;21491;-61
2021/11/21 06:54:23;;;;;;;9.68;7.12;;;;;;;5.92;100.00;98644.44;1737255;81;20938;-61
2021/11/21 06:56:51;;;;;;;8.75;7.28;;;;;;;5.90;100.00;98646.17;1752723;81;21383;-61
2021/11/21 06:59:19;;;;;;;9.10;7.17;;;;;;;5.88;100.00;98657.04;1757624;80;20884;-61
2021/11/21 07:01:48;;;;;;;9.45;7.78;;;;;;;5.87;100.00;98650.05;1763951;81;21482;-62
2021/11/21 07:04:16;;;;;;;11.10;7.20;;;;;;;5.86;100.00;98652.66;1744563;81;21164;-61
2021/11/21 07:06:46;;;;;;;9.90;6.50;;;;;;;5.82;100.00;98658.32;1754110;80;21394;-61
2021/11/21 07:09:17;;;;;;;12.25;7.15;;;;;;;5.84;100.00;98655.70;1729762;81;21426;-61
2021/11/21 07:11:46;;;;;;;10.85;8.10;;;;;;;5.84;100.00;98651.78;1737374;81;20919;-61
2021/11/21 07:14:14;;;;;;;11.20;7.45;;;;;;;5.84;100.00;98650.04;1753780;81;20872;-61
2021/11/21 07:16:45;;;;;;;14.47;9.00;;;;;;;5.87;100.00;98646.13;1752846;81;21812;-62
2021/11/21 07:19:13;;;;;;;12.80;7.92;;;;;;;5.90;100.00;98646.17;1753755;81;20919;-61
2021/11/21 07:21:41;;;;;;;10.60;7.60;;;;;;;5.94;100.00;98641.83;1751649;81;21006;-61
2021/11/21 07:24:12;;;;;;;9.40;6.83;;;;;;;5.95;100.00;98635.72;1753696;81;20974;-64
2021/11/21 07:26:41;;;;;;;9.38;6.65;;;;;;;6.01;100.00;98633.12;1752547;81;21580;-62
2021/11/21 07:29:09;;;;;;;8.65;6.15;;;;;;;6.06;100.00;98626.16;1753905;81;21190;-61
2021/11/21 07:31:38;;;;;;;6.45;5.75;;;;;;;6.09;100.00;98626.17;1753995;81;21591;-61
2021/11/21 07:34:07;;;;;;;8.08;6.00;;;;;;;6.12;100.00;98628.80;1753714;81;20915;-61
2021/11/21 07:36:35;;;;;;;9.05;6.10;;;;;;;6.16;100.00;98629.28;1753663;81;20978;-61
2021/11/21 07:39:03;;;;;;;7.83;6.03;;;;;;;6.17;100.00;98631.03;1752244;81;20982;-63
2021/11/21 07:41:32;;;;;;;6.97;5.10;;;;;;;6.19;100.00;98631.03;1753719;81;21147;-61
2021/11/21 07:44:01;;;;;;;8.53;5.55;;;;;;;6.21;100.00;98629.30;1753956;81;21402;-61
2021/11/21 07:46:30;;;;;;;5.40;4.78;;;;;;;6.25;100.00;98625.38;1753806;81;21443;-61
2021/11/21 07:48:59;;;;;;;7.15;5.45;;;;;;;6.29;100.00;98623.20;1751643;81;20956;-61
2021/11/21 07:51:28;;;;;;;8.68;5.92;;;;;;;6.31;100.00;98623.20;1753693;81;20931;-61
2021/11/21 07:53:56;;;;;;;9.33;5.70;;;;;;;6.33;100.00;98619.28;1753894;81;21055;-63
2021/11/21 07:56:24;;;;;;;8.65;5.28;;;;;;;6.33;100.00;98619.28;1753689;81;20935;-62
2021/11/21 07:58:53;;;;;;;7.10;5.70;;;;;;;6.34;100.00;98617.98;1752352;81;21047;-61
2021/11/21 08:01:21;;;;;;;5.87;5.25;;;;;;;6.36;100.00;98621.47;1752815;81;20946;-61
2021/11/21 08:03:54;;;;;;;6.47;4.87;;;;;;;6.36;100.00;98616.23;1752528;81;20931;-61
2021/11/21 08:06:22;;;;;;;6.28;5.25;;;;;;;6.40;100.00;98610.56;1753649;81;21113;-63
2021/11/21 08:08:50;;;;;;;6.08;5.05;;;;;;;6.43;100.00;98614.50;1749541;81;21003;-61
2021/11/21 08:11:20;;;;;;;6.67;5.10;;;;;;;6.44;100.00;98619.73;1727015;82;21447;-62
2021/11/21 08:13:50;;;;;;;7.20;5.45;;;;;;;6.45;100.00;98614.06;1722601;82;21491;-61
2021/11/21 08:16:18;;;;;;;6.17;5.10;;;;;;;6.48;100.00;98616.69;1723630;82;20949;-61
2021/11/21 08:18:47;;;;;;;6.33;5.12;;;;;;;6.49;100.00;98615.38;1725273;82;21447;-64
2021/11/21 08:21:15;;;;;;;9.28;5.90;;;;;;;6.53;100.00;98614.95;1724883;83;20972;-61
2021/11/21 08:23:43;;;;;;;13.60;8.08;;;;;;;6.56;100.00;98618.88;1724785;82;21873;-63
2021/11/21 08:26:13;;;;;;;16.82;7.53;;;;;;;6.59;100.00;98616.27;1718038;82;20920;-62
2021/11/21 08:28:41;;;;;;;8.93;5.45;;;;;;;6.65;100.00;98613.68;1718499;83;20936;-62
2021/11/21 08:31:10;;;;;;;9.80;5.87;;;;;;;6.68;100.00;98612.38;1717287;82;21147;-62
2021/11/21 08:33:38;;;;;;;6.85;5.10;;;;;;;6.68;100.00;98607.57;1718631;83;20949;-63
2021/11/21 08:36:07;;;;;;;8.73;5.83;;;;;;;6.69;100.00;98603.64;1718049;83;20967;-62
2021/11/21 08:38:35;;;;;;;10.30;6.65;;;;;;;6.73;100.00;98611.94;1718290;82;21017;-64
2021/11/21 08:41:03;;;;;;;7.47;5.53;;;;;;;6.76;100.00;98610.62;1715165;82;21008;-63
2021/11/21 08:43:32;;;;;;;8.20;5.85;;;;;;;6.78;100.00;98610.62;1718042;83;21228;-62
2021/11/21 08:46:00;;;;;;;11.63;8.20;;;;;;;6.78;100.00;98608.88;1719189;82;21573;-63
2021/11/21 08:48:28;;;;;;;8.88;6.40;;;;;;;6.79;100.00;98605.83;1717660;83;20980;-62
2021/11/21 08:50:56;;;;;;;7.37;5.25;;;;;;;6.80;100.00;98601.02;1717313;82;21003;-63
2021/11/21 08:53:25;;;;;;;5.25;4.40;;;;;;;6.81;100.00;98604.08;1714818;83;20952;-62
2021/11/21 08:55:53;;;;;;;7.25;4.80;;;;;;;6.83;100.00;98603.64;1717859;83;21164;-62
2021/11/21 08:58:21;;;;;;;5.75;4.90;;;;;;;6.83;100.00;98605.83;1721083;82;21020;-64
2021/11/21 09:00:51;;;;;;;6.95;5.95;;;;;;;6.83;100.00;98601.89;1712408;83;21585;-62
2021/11/21 09:03:20;;;;;;;8.53;5.78;;;;;;;6.81;100.00;98599.70;1716191;82;21036;-64
2021/11/21 09:05:48;;;;;;;7.03;5.50;;;;;;;6.81;100.00;98598.40;1725301;82;21602;-64
2021/11/21 09:08:15;;;;;;;9.30;5.58;;;;;;;6.81;100.00;98594.47;1724898;82;21143;-63
2021/11/21 09:10:44;;;;;;;8.78;6.10;;;;;;;6.82;100.00;98588.34;1730922;82;21591;-63
2021/11/21 09:13:12;;;;;;;6.95;5.67;;;;;;;6.81;100.00;98586.60;1728444;81;20916;-69
2021/11/21 09:15:40;;;;;;;6.87;5.80;;;;;;;6.82;100.00;98589.66;1734213;81;20911;-69
2021/11/21 09:18:09;;;;;;;8.08;5.25;;;;;;;6.83;100.00;98583.55;1740316;81;21407;-70
2021/11/21 09:20:37;;;;;;;6.83;4.75;;;;;;;6.86;100.00;98580.05;1734038;81;21196;-70
2021/11/21 09:23:12;;;;;;;5.62;4.95;;;;;;;6.89;100.00;98574.36;1736154;81;21011;-70
2021/11/21 09:25:41;;;;;;;6.30;5.08;;;;;;;6.94;100.00;98571.30;1737128;81;22051;-70
2021/11/21 09:28:09;;;;;;;6.28;5.33;;;;;;;6.97;100.00;98570.42;1733240;81;21001;-70
2021/11/21 09:30:38;;;;;;;8.83;5.30;;;;;;;7.01;100.00;98563.42;1740653;81;21067;-69
2021/11/21 09:33:06;;;;;;;10.28;5.90;;;;;;;7.03;100.00;98562.55;1739817;81;21797;-69
2021/11/21 09:35:34;;;;;;;11.10;6.65;;;;;;;7.10;100.00;98562.13;1736027;81;20923;-69
2021/11/21 09:38:03;;;;;;;10.55;6.08;;;;;;;7.14;100.00;98558.63;1735328;81;20972;-68
2021/11/21 09:40:31;;;;;;;9.60;6.78;;;;;;;7.17;100.00;98555.56;1734886;81;21576;-67
2021/11/21 09:43:01;;;;;;;9.08;6.08;;;;;;;7.20;100.00;98549.43;1733756;81;21045;-67
2021/11/21 09:45:30;;;;;;;12.93;7.80;;;;;;;7.21;100.00;98544.18;1734582;82;21185;-69
2021/11/21 09:47:59;;;;;;;9.88;6.85;;;;;;;7.23;100.00;98542.86;1738931;82;20920;-67
2021/11/21 09:50:29;;;;;;;7.10;5.47;;;;;;;7.26;100.00;98544.17;1735774;81;20996;-68
2021/11/21 09:52:57;;;;;;;9.85;5.25;;;;;;;7.29;100.00;98538.91;1738181;81;21031;-67
2021/11/21 09:55:26;;;;;;;9.83;5.90;;;;;;;7.32;100.00;98541.53;1733837;82;21084;-68
2021/11/21 09:57:55;;;;;;;6.95;5.42;;;;;;;7.37;100.00;98534.95;1733244;82;21121;-67
2021/11/21 10:00:24;;;;;;;5.20;4.67;;;;;;;7.41;100.00;98526.19;1734118;81;21489;-67
2021/11/21 10:03:05;;;;;;;8.55;5.95;;;;;;;7.46;100.00;98526.61;1726407;82;21537;-71
2021/11/21 10:05:39;;;;;;;6.85;5.45;;;;;;;7.52;100.00;98527.89;1738084;81;21038;-69
2021/11/21 10:08:14;;;;;;;6.58;5.70;;;;;;;7.58;100.00;98536.22;1743436;82;20991;-69
2021/11/21 10:11:00;;;;;;;7.03;6.10;;;;;;;7.64;100.00;98526.13;1727683;81;21166;-68
2021/11/21 10:13:36;;;;;;;7.50;5.83;;;;;;;7.68;100.00;98527.42;1728407;82;21403;-68
2021/11/21 10:16:28;;;;;;;8.80;6.55;;;;;;;7.73;100.00;98521.70;1699253;82;21570;-68
2021/11/21 10:19:07;;;;;;;8.90;6.50;;;;;;;7.80;100.00;98510.73;1725795;82;21616;-69
2021/11/21 10:21:48;;;;;;;8.70;6.78;;;;;;;7.86;100.00;98506.76;1728532;82;20940;-67
2021/11/21 10:24:27;;;;;;;10.15;6.95;;;;;;;7.90;100.00;98504.11;1725702;82;21167;-67
2021/11/21 10:27:10;;;;;;;10.30;7.28;;;;;;;7.96;100.00;98504.52;1725555;82;20952;-68
2021/11/21 10:29:46;;;;;;;12.40;7.10;;;;;;;8.02;100.00;98494.41;1727848;82;20956;-67
2021/11/21 10:32:31;;;;;;;8.98;6.35;;;;;;;8.09;100.00;98493.52;1725078;82;21477;-66
2021/11/21 10:35:03;;;;;;;8.20;6.08;;;;;;;8.14;100.00;98493.05;1725169;82;20987;-68
2021/11/21 10:37:36;;;;;;;;;;;;;;;8.17;100.00;98488.64;1727194;81;21470;-70
2021/11/21 10:40:17;;;;;;;13.90;7.87;;;;;;;8.23;100.00;98488.16;1725944;82;20210;-68
2021/11/21 10:42:47;;;;;;;10.50;7.40;;;;;;;8.27;100.00;98480.69;1720883;82;20913;-66
2021/11/21 10:45:23;;;;;;;8.10;6.22;;;;;;;8.32;100.00;98477.58;1698333;82;20908;-69
2021/11/21 10:47:53;;;;;;;9.33;5.42;;;;;;;8.37;100.00;98476.70;1715554;82;20962;-67
2021/11/21 10:50:35;;;;;;;11.05;5.92;;;;;;;8.44;100.00;98477.52;1673778;83;21768;-67
2021/11/21 10:53:07;;;;;;;8.73;6.60;;;;;;;8.50;100.00;98476.15;1675348;83;20904;-65
2021/11/21 10:55:37;;;;;;;8.23;6.15;;;;;;;8.57;100.00;98465.17;1672534;84;21039;-63
2021/11/21 10:58:21;;;;;;;11.83;7.62;;;;;;;8.64;100.00;98461.59;1719030;81;21118;-64
2021/11/21 11:00:58;;;;;;;16.75;9.65;;;;;;;8.72;100.00;98461.08;1720488;81;35862;-64
2021/11/21 11:03:26;;;;;;;14.63;8.65;;;;;;;8.81;100.00;98462.30;1721374;81;21096;-62
2021/11/21 11:05:54;;;;;;;18.57;12.00;;;;;;;8.89;100.00;98456.96;1718389;81;20999;-64
2021/11/21 11:08:26;;;;;;;19.77;11.15;;;;;;;8.97;100.00;98452.48;1718685;81;20974;-65
2021/11/21 11:10:54;;;;;;;18.87;11.93;;;;;;;9.05;100.00;98452.86;1752867;80;20991;-63
2021/11/21 11:13:24;;;;;;;15.53;9.38;;;;;;;9.14;100.00;98443.55;1764573;80;21046;-64
2021/11/21 11:15:55;;;;;;;14.00;7.90;;;;;;;9.23;100.00;98441.25;1764772;80;21336;-64
2021/11/21 11:18:27;;;;;;;12.18;7.60;;;;;;;9.32;100.00;98435.88;1767931;80;25323;-64
2021/11/21 11:20:57;;;;;;;8.75;6.17;;;;;;;9.41;100.00;98431.80;1755566;80;20991;-63
2021/11/21 11:23:25;;;;;;;8.38;6.35;;;;;;;9.48;100.00;98430.44;1767957;80;20991;-63
2021/11/21 11:25:57;;;;;;;9.43;6.53;;;;;;;9.56;100.00;98430.77;1767659;80;21497;-64
2021/11/21 11:28:37;;;;;;;14.75;8.13;;;;;;;9.64;100.00;98428.02;1769184;80;21144;-63
2021/11/21 11:31:26;;;;;;;9.63;6.07;;;;;;;9.72;100.00;98426.16;1766423;80;21071;-64
2021/11/21 11:33:57;;;;;;;10.43;6.58;;;;;;;9.80;100.00;98420.33;1768386;80;20923;-67
2021/11/21 11:36:27;;;;;;;7.45;5.28;;;;;;;9.88;100.00;98423.72;1770651;80;21271;-64
2021/11/21 11:39:10;;;;;;;8.95;5.40;;;;;;;9.97;100.00;98412.20;1767989;80;20943;-64
2021/11/21 11:41:37;;;;;;;5.42;4.55;;;;;;;10.00;100.00;98413.02;1763545;80;24760;-64